Bethcar, South Carolina
Current Conditions -  °F | °C
As of 10:35 PM on Sunday 21 Dec 2014 (Local Time) from KAIK Reporting Station
Haze Haze  
Wind Chill: 40°   Ceiling: 4000
Heat Index: 45°   Visibility: 5mi
Dew Point: 45°   Wind: 8mph
Humidity: 100%   Direction: 50°NE
Pressure: 30.16"   Gusts: NA
Location:  33.6528°N, 81.4253°W
Report Text: KAIK 220335Z AUTO 05007KT 5SM BR SCT033 BKN040 OVC048 07/07 A3016 RMK AO2 PNO
Loading
Personal Weather Stations






























Interactive Weather Map New forecast layout! Learn more

10-Day Weather Forecast

Advertisements
Track Severe Weather on mobile